Time;durP1;ratioP1;P1;durP2;ratioP2;P2;SDS_P1;SDS_P2;PMS_P1;PMS_P2;Temp;Humidity;BMP_temperature;BMP_pressure;BME280_temperature;BME280_humidity;BME280_pressure;Samples;Min_cycle;Max_cycle;Signal;HPM_P1;HPM_P2
2022/11/29 00:00:53;;;;;;;38.10;29.03;;;;;21.20;100250.00;;;;2078904;28;20448;-53
2022/11/29 00:01:53;;;;;;;34.53;28.00;;;;;21.20;100246.00;;;;2079042;28;20241;-52
2022/11/29 00:02:53;;;;;;;38.40;28.20;;;;;21.20;100243.00;;;;2079931;28;20210;-53
2022/11/29 00:03:54;;;;;;;35.33;28.40;;;;;21.20;100248.00;;;;2080123;28;20225;-52
2022/11/29 00:04:54;;;;;;;36.90;29.20;;;;;21.20;100248.00;;;;2088389;28;20239;-53
2022/11/29 00:05:54;;;;;;;34.80;27.70;;;;;21.20;100240.00;;;;2088716;28;20263;-51
2022/11/29 00:06:55;;;;;;;33.70;27.07;;;;;21.20;100247.00;;;;2088614;28;20213;-51
2022/11/29 00:07:55;;;;;;;33.80;26.87;;;;;21.20;100252.00;;;;2087966;28;20705;-53
2022/11/29 00:08:57;;;;;;;32.70;27.07;;;;;21.20;100255.00;;;;2088166;28;20687;-54
2022/11/29 00:09:57;;;;;;;33.75;26.38;;;;;21.20;100249.00;;;;2087689;28;20212;-52
2022/11/29 00:11:05;;;;;;;33.37;26.60;;;;;21.20;100254.00;;;;2087780;28;20640;-53
2022/11/29 00:12:11;;;;;;;32.45;26.38;;;;;21.20;100254.00;;;;2086837;28;20293;-52
2022/11/29 00:13:12;;;;;;;35.38;25.95;;;;;21.20;100256.00;;;;2088380;28;20219;-52
2022/11/29 00:14:14;;;;;;;32.50;25.17;;;;;21.20;100251.00;;;;2087853;28;20653;-54
2022/11/29 00:15:14;;;;;;;33.47;23.75;;;;;21.10;100244.00;;;;2088378;28;20216;-51
2022/11/29 00:16:14;;;;;;;36.03;26.67;;;;;21.10;100246.00;;;;2088164;28;20316;-50
2022/11/29 00:17:15;;;;;;;31.60;24.23;;;;;21.20;100253.00;;;;2088420;28;20235;-51
2022/11/29 00:18:15;;;;;;;28.33;23.30;;;;;21.20;100252.00;;;;2088101;28;20216;-52
2022/11/29 00:19:15;;;;;;;28.13;23.20;;;;;21.10;100250.00;;;;2088107;28;20209;-51
2022/11/29 00:20:16;;;;;;;28.00;22.67;;;;;21.10;100256.00;;;;2088203;28;20216;-52
2022/11/29 00:21:16;;;;;;;27.13;22.53;;;;;21.10;100241.00;;;;2088350;28;20212;-54
2022/11/29 00:22:16;;;;;;;30.37;22.37;;;;;21.10;100248.00;;;;2087435;28;20208;-53
2022/11/29 00:23:17;;;;;;;28.90;23.20;;;;;21.10;100246.00;;;;2087957;28;20831;-52
2022/11/29 00:24:17;;;;;;;33.30;25.00;;;;;21.10;100248.00;;;;2079564;28;20621;-54
2022/11/29 00:25:17;;;;;;;30.67;23.10;;;;;21.10;100246.00;;;;2079288;28;20683;-53
2022/11/29 00:26:18;;;;;;;25.83;21.67;;;;;21.10;100245.00;;;;2079529;28;20217;-56
2022/11/29 00:27:18;;;;;;;29.30;22.67;;;;;21.10;100244.00;;;;2080208;28;20693;-56
2022/11/29 00:28:18;;;;;;;26.40;20.60;;;;;21.10;100242.00;;;;2079802;28;20240;-55
2022/11/29 00:29:19;;;;;;;24.23;20.30;;;;;21.10;100240.00;;;;2079596;28;20209;-55
2022/11/29 00:30:19;;;;;;;25.00;19.70;;;;;21.10;100244.00;;;;2080086;28;20237;-54
2022/11/29 00:31:22;;;;;;;24.87;20.07;;;;;21.10;100249.00;;;;2079448;28;20307;-53
2022/11/29 00:32:23;;;;;;;24.80;20.17;;;;;21.10;100239.00;;;;2082419;28;21039;-52
2022/11/29 00:33:23;;;;;;;23.63;19.10;;;;;21.10;100250.00;;;;2081877;28;20217;-53
2022/11/29 00:34:23;;;;;;;23.40;19.00;;;;;21.10;100252.00;;;;2080765;28;20309;-50
2022/11/29 00:35:24;;;;;;;22.90;19.20;;;;;21.10;100245.00;;;;2080666;28;20221;-52
2022/11/29 00:36:24;;;;;;;24.77;19.13;;;;;21.10;100249.00;;;;2083543;28;20214;-51
2022/11/29 00:37:24;;;;;;;22.10;18.50;;;;;21.10;100244.00;;;;2079991;28;20283;-51
2022/11/29 00:38:26;;;;;;;22.00;19.00;;;;;21.10;100247.00;;;;2085337;28;20304;-52
2022/11/29 00:39:26;;;;;;;23.60;18.75;;;;;21.10;100246.00;;;;2087366;28;20217;-51
2022/11/29 00:40:27;;;;;;;24.40;18.93;;;;;21.00;100255.00;;;;2086833;28;20225;-52
2022/11/29 00:41:27;;;;;;;20.27;17.33;;;;;21.10;100253.00;;;;2087034;28;20282;-53
2022/11/29 00:42:27;;;;;;;23.70;18.40;;;;;21.00;100251.00;;;;2087050;28;20213;-53
2022/11/29 00:43:28;;;;;;;21.27;17.60;;;;;21.10;100252.00;;;;2087826;28;20228;-52
2022/11/29 00:44:28;;;;;;;21.30;18.37;;;;;21.00;100254.00;;;;2087054;28;20221;-53
2022/11/29 00:45:28;;;;;;;23.00;18.40;;;;;21.00;100261.00;;;;2087377;28;20251;-53
2022/11/29 00:46:29;;;;;;;21.80;18.87;;;;;21.10;100258.00;;;;2087549;28;20220;-50
2022/11/29 00:47:29;;;;;;;20.90;17.60;;;;;21.10;100257.00;;;;2087917;28;20217;-52
2022/11/29 00:48:29;;;;;;;19.03;17.03;;;;;21.00;100261.00;;;;2087549;28;20213;-51
2022/11/29 00:49:30;;;;;;;17.83;15.93;;;;;21.00;100262.00;;;;2087078;28;20228;-52
2022/11/29 00:50:30;;;;;;;20.20;16.63;;;;;21.00;100258.00;;;;2087746;28;20217;-52
2022/11/29 00:51:30;;;;;;;19.93;16.40;;;;;21.10;100254.00;;;;2086965;28;20229;-51
2022/11/29 00:52:31;;;;;;;18.70;15.33;;;;;21.00;100258.00;;;;2086619;28;20257;-53
2022/11/29 00:53:32;;;;;;;19.63;16.50;;;;;21.00;100254.00;;;;2087119;28;20216;-52
2022/11/29 00:54:32;;;;;;;16.43;14.50;;;;;21.00;100251.00;;;;2086397;28;20300;-53
2022/11/29 00:55:32;;;;;;;19.03;15.47;;;;;21.00;100255.00;;;;2084611;28;20534;-53
2022/11/29 00:56:33;;;;;;;18.60;16.10;;;;;21.00;100256.00;;;;2078766;28;20214;-52
2022/11/29 00:57:33;;;;;;;18.13;15.00;;;;;21.00;100260.00;;;;2077820;28;20225;-53
2022/11/29 00:58:34;;;;;;;18.03;15.37;;;;;21.00;100254.00;;;;2079008;28;20245;-52
2022/11/29 00:59:34;;;;;;;17.35;14.68;;;;;21.00;100256.00;;;;2084759;28;20266;-52
2022/11/29 01:00:35;;;;;;;18.63;15.60;;;;;21.00;100254.00;;;;2087293;28;20878;-52
2022/11/29 01:01:35;;;;;;;18.30;15.30;;;;;21.00;100249.00;;;;2086322;28;20697;-50
2022/11/29 01:02:35;;;;;;;15.77;14.03;;;;;21.00;100254.00;;;;2086380;28;20750;-54
2022/11/29 01:03:36;;;;;;;17.50;14.30;;;;;21.00;100255.00;;;;2087998;28;20682;-50
2022/11/29 01:04:36;;;;;;;18.00;15.30;;;;;21.00;100252.00;;;;2088135;28;20556;-51
2022/11/29 01:05:36;;;;;;;18.20;13.83;;;;;21.00;100251.00;;;;2087206;28;20232;-52
2022/11/29 01:06:37;;;;;;;17.80;14.90;;;;;21.00;100256.00;;;;2087939;28;20697;-53
2022/11/29 01:07:37;;;;;;;17.73;13.90;;;;;21.00;100254.00;;;;2087013;28;20209;-53
2022/11/29 01:08:37;;;;;;;17.20;13.90;;;;;21.00;100254.00;;;;2086981;28;20212;-51
2022/11/29 01:09:38;;;;;;;18.63;14.50;;;;;21.00;100249.00;;;;2087917;28;20292;-52
2022/11/29 01:10:38;;;;;;;15.17;13.40;;;;;21.00;100248.00;;;;2084338;28;20219;-51
2022/11/29 01:11:39;;;;;;;16.77;14.20;;;;;21.00;100253.00;;;;2087953;28;20200;-52
2022/11/29 01:12:39;;;;;;;15.10;12.67;;;;;21.00;100246.00;;;;2086420;28;20217;-53
2022/11/29 01:13:39;;;;;;;16.30;13.07;;;;;21.00;100253.00;;;;2087428;28;20209;-52
2022/11/29 01:14:40;;;;;;;15.77;14.07;;;;;21.00;100247.00;;;;2087464;28;20586;-53
2022/11/29 01:15:41;;;;;;;16.57;14.40;;;;;21.00;100253.00;;;;2087353;28;20299;-53
2022/11/29 01:16:41;;;;;;;16.57;13.13;;;;;21.00;100255.00;;;;2087716;28;20220;-52
2022/11/29 01:17:41;;;;;;;13.73;12.27;;;;;21.00;100256.00;;;;2086871;28;20269;-50
2022/11/29 01:18:42;;;;;;;14.23;12.73;;;;;20.90;100250.00;;;;2086378;28;20212;-53
2022/11/29 01:19:42;;;;;;;14.50;12.37;;;;;21.00;100261.00;;;;2081906;28;20221;-52
2022/11/29 01:20:42;;;;;;;13.27;11.43;;;;;21.00;100260.00;;;;2078600;28;20690;-53
2022/11/29 01:21:43;;;;;;;15.10;12.47;;;;;21.00;100254.00;;;;2078544;28;20717;-50
2022/11/29 01:22:43;;;;;;;15.83;12.70;;;;;21.00;100257.00;;;;2078456;28;20662;-51
2022/11/29 01:23:44;;;;;;;14.83;12.33;;;;;20.90;100263.00;;;;2078115;28;20642;-53
2022/11/29 01:24:44;;;;;;;13.32;11.40;;;;;20.90;100263.00;;;;2078345;28;20312;-51
2022/11/29 01:25:45;;;;;;;15.60;12.07;;;;;20.90;100259.00;;;;2075877;28;20217;-53
2022/11/29 01:26:45;;;;;;;15.83;12.77;;;;;21.00;100260.00;;;;2078954;28;20249;-50
2022/11/29 01:27:45;;;;;;;12.83;11.40;;;;;21.00;100269.00;;;;2078606;28;20275;-53
2022/11/29 01:28:47;;;;;;;14.87;12.67;;;;;21.00;100264.00;;;;2078279;28;20770;-52
2022/11/29 01:29:50;;;;;;;13.40;11.57;;;;;20.90;100271.00;;;;2078789;28;20225;-49
2022/11/29 01:30:50;;;;;;;14.70;11.80;;;;;20.90;100272.00;;;;2078410;28;20631;-53
2022/11/29 01:31:51;;;;;;;13.53;11.00;;;;;20.90;100268.00;;;;2078321;28;20209;-53
2022/11/29 01:32:51;;;;;;;13.33;11.90;;;;;21.00;100264.00;;;;2079493;28;20236;-53
2022/11/29 01:33:55;;;;;;;14.50;12.20;;;;;20.90;100273.00;;;;2079252;28;20214;-52
2022/11/29 01:34:55;;;;;;;13.00;11.70;;;;;20.90;100271.00;;;;2079013;28;20712;-52
2022/11/29 01:35:55;;;;;;;13.33;11.90;;;;;20.90;100268.00;;;;2079523;28;20221;-51
2022/11/29 01:36:56;;;;;;;12.23;10.73;;;;;20.90;100275.00;;;;2079480;28;20600;-50
2022/11/29 01:37:56;;;;;;;12.53;11.23;;;;;20.90;100270.00;;;;2079239;28;20575;-53
2022/11/29 01:39:00;;;;;;;12.00;10.80;;;;;20.90;100282.00;;;;2079145;28;20625;-52
2022/11/29 01:40:00;;;;;;;11.65;10.27;;;;;20.90;100271.00;;;;2078961;28;20216;-53
2022/11/29 01:41:03;;;;;;;12.17;10.80;;;;;20.90;100268.00;;;;2079452;28;20220;-53
2022/11/29 01:42:03;;;;;;;11.77;10.55;;;;;20.90;100274.00;;;;2078634;28;20341;-49
2022/11/29 01:43:15;;;;;;;13.53;11.53;;;;;20.90;100273.00;;;;2077725;28;20289;-50
2022/11/29 01:44:15;;;;;;;14.05;12.18;;;;;20.90;100277.00;;;;2078008;28;20220;-52
2022/11/29 01:45:23;;;;;;;12.20;10.50;;;;;20.90;100268.00;;;;2078573;28;20716;-53
2022/11/29 01:46:23;;;;;;;12.32;11.00;;;;;20.90;100274.00;;;;2079315;28;20589;-49
2022/11/29 01:47:24;;;;;;;13.20;11.27;;;;;20.90;100276.00;;;;2078503;28;20328;-51
2022/11/29 01:48:30;;;;;;;11.73;10.53;;;;;20.90;100239.00;;;;2078514;28;20232;-51
2022/11/29 01:49:34;;;;;;;12.45;10.95;;;;;20.90;100273.00;;;;2077697;28;20224;-50
2022/11/29 01:50:34;;;;;;;11.82;10.63;;;;;20.90;100273.00;;;;2062520;28;20269;-52
2022/11/29 01:51:35;;;;;;;12.53;10.80;;;;;20.90;100273.00;;;;2070533;28;20218;-50
2022/11/29 01:52:35;;;;;;;12.25;11.05;;;;;20.90;100271.00;;;;2061265;28;20218;-50
2022/11/29 01:53:36;;;;;;;12.33;10.67;;;;;20.90;100276.00;;;;2062259;28;20808;-51
2022/11/29 01:54:38;;;;;;;11.53;10.03;;;;;20.90;100275.00;;;;2054240;28;20712;-53
2022/11/29 01:55:40;;;;;;;11.40;10.25;;;;;20.90;100277.00;;;;2078426;28;20251;-51
2022/11/29 01:56:40;;;;;;;11.38;10.18;;;;;20.90;100274.00;;;;2086355;28;20239;-53
2022/11/29 01:57:41;;;;;;;12.33;11.00;;;;;20.90;100288.00;;;;2086639;28;20212;-49
2022/11/29 01:58:44;;;;;;;11.47;10.27;;;;;20.80;100281.00;;;;2086340;28;20208;-52
2022/11/29 01:59:47;;;;;;;11.98;10.70;;;;;20.90;100273.00;;;;2086752;28;20666;-51
2022/11/29 02:00:47;;;;;;;12.10;10.38;;;;;20.90;100272.00;;;;2084381;28;20625;-51
2022/11/29 02:01:48;;;;;;;11.93;10.13;;;;;20.90;100272.00;;;;2078328;28;20214;-52
2022/11/29 02:02:54;;;;;;;12.60;10.83;;;;;20.80;100270.00;;;;2079140;28;20678;-52
2022/11/29 02:03:54;;;;;;;11.75;10.07;;;;;20.90;100277.00;;;;2078427;28;20355;-53
2022/11/29 02:04:55;;;;;;;12.17;10.87;;;;;20.80;100284.00;;;;2078452;28;20217;-53
2022/11/29 02:05:55;;;;;;;10.87;9.77;;;;;20.90;100277.00;;;;2079201;28;20267;-52
2022/11/29 02:06:55;;;;;;;11.63;10.43;;;;;20.90;100283.00;;;;2078193;28;20205;-50
2022/11/29 02:07:56;;;;;;;12.30;10.87;;;;;20.80;100274.00;;;;2078413;28;20221;-51
2022/11/29 02:08:56;;;;;;;11.00;9.90;;;;;20.90;100272.00;;;;2078331;28;20639;-53
2022/11/29 02:09:57;;;;;;;10.73;9.50;;;;;20.90;100276.00;;;;2078659;28;20225;-53
2022/11/29 02:11:26;;;;;;;12.37;10.87;;;;;20.80;100279.00;;;;2079191;28;20292;-53
2022/11/29 02:12:58;;;;;;;12.07;10.50;;;;;20.80;100285.00;;;;2082695;28;20224;-51
2022/11/29 02:14:23;;;;;;;9.60;8.60;;;;;20.80;100279.00;;;;2080159;28;20209;-52
2022/11/29 02:15:40;;;;;;;13.38;10.85;;;;;20.80;100289.00;;;;2081297;28;20220;-53
2022/11/29 02:16:59;;;;;;;11.25;10.05;;;;;20.80;100288.00;;;;2083026;28;20766;-52
2022/11/29 02:18:10;;;;;;;11.85;10.10;;;;;20.80;100280.00;;;;2085078;28;20220;-53
2022/11/29 02:19:22;;;;;;;11.32;10.00;;;;;20.80;100289.00;;;;2078056;28;20272;-51
2022/11/29 02:20:40;;;;;;;13.65;10.65;;;;;20.80;100291.00;;;;2080515;28;20226;-52
2022/11/29 02:22:00;;;;;;;13.85;9.85;;;;;20.80;100289.00;;;;2086417;28;20250;-52
2022/11/29 02:23:25;;;;;;;12.52;10.25;;;;;20.80;100291.00;;;;2076503;28;20216;-52
2022/11/29 02:24:50;;;;;;;12.32;11.02;;;;;20.80;100297.00;;;;2089592;28;20619;-53
2022/11/29 02:26:09;;;;;;;11.75;9.80;;;;;20.80;100288.00;;;;2082208;28;20217;-50
2022/11/29 02:27:42;;;;;;;12.00;9.93;;;;;20.80;100291.00;;;;2078673;28;20214;-52
2022/11/29 02:29:01;;;;;;;12.63;10.65;;;;;20.80;100292.00;;;;2066153;28;20213;-52
2022/11/29 02:30:13;;;;;;;11.02;9.82;;;;;20.80;100297.00;;;;2083117;28;20674;-53
2022/11/29 02:31:22;;;;;;;11.27;9.88;;;;;20.80;100294.00;;;;2086291;28;20339;-53
2022/11/29 02:32:44;;;;;;;12.18;9.88;;;;;20.80;100292.00;;;;2085531;28;20221;-50
2022/11/29 02:33:57;;;;;;;11.73;10.10;;;;;20.80;100301.00;;;;2086745;28;20215;-49
2022/11/29 02:35:04;;;;;;;12.32;10.13;;;;;20.80;100304.00;;;;2087124;28;22231;-52
2022/11/29 02:36:50;;;;;;;14.13;11.20;;;;;20.80;100305.00;;;;2086779;28;20247;-49
2022/11/29 02:38:24;;;;;;;12.98;10.20;;;;;20.80;100303.00;;;;2086669;28;20254;-52
2022/11/29 02:39:48;;;;;;;13.00;10.70;;;;;20.80;100300.00;;;;2086134;28;20248;-52
2022/11/29 02:41:07;;;;;;;12.45;10.15;;;;;20.80;100302.00;;;;2085506;28;20299;-53
2022/11/29 02:42:24;;;;;;;10.50;9.30;;;;;20.80;100306.00;;;;2085814;28;20307;-51
2022/11/29 02:43:46;;;;;;;14.05;10.65;;;;;20.80;100302.00;;;;2086598;28;20224;-49
2022/11/29 02:45:13;;;;;;;11.85;9.93;;;;;20.80;100303.00;;;;2085982;28;20220;-52
2022/11/29 02:46:21;;;;;;;12.85;10.65;;;;;20.80;100313.00;;;;2085639;28;20232;-52
2022/11/29 02:47:46;;;;;;;12.60;10.25;;;;;20.80;100309.00;;;;2086181;28;20934;-52
2022/11/29 02:49:12;;;;;;;11.75;9.90;;;;;20.80;100310.00;;;;2085409;28;20209;-51
2022/11/29 02:50:33;;;;;;;12.00;9.82;;;;;20.80;100315.00;;;;2084621;28;20217;-53
2022/11/29 02:51:38;;;;;;;11.68;9.70;;;;;20.80;100308.00;;;;2085682;28;20238;-50
2022/11/29 02:53:02;;;;;;;12.40;10.10;;;;;20.70;100311.00;;;;2084731;28;20705;-50
2022/11/29 02:54:17;;;;;;;11.02;9.52;;;;;20.80;100311.00;;;;2085784;28;20212;-53
2022/11/29 02:55:28;;;;;;;11.73;10.43;;;;;20.80;100313.00;;;;2082861;28;20208;-51
2022/11/29 02:56:31;;;;;;;11.65;9.73;;;;;20.70;100307.00;;;;2075804;28;20692;-53
2022/11/29 02:57:46;;;;;;;12.32;10.20;;;;;20.70;100318.00;;;;2077870;28;20252;-52
2022/11/29 02:59:24;;;;;;;11.73;9.52;;;;;20.70;100310.00;;;;2079573;28;20764;-51
2022/11/29 03:00:25;;;;;;;12.95;10.15;;;;;20.70;100312.00;;;;2062536;28;21136;-54
2022/11/29 03:01:55;;;;;;;12.20;10.13;;;;;20.70;100316.00;;;;2086933;28;20213;-52
2022/11/29 03:03:12;;;;;;;12.52;9.35;;;;;20.70;100317.00;;;;2086799;28;20217;-51
2022/11/29 03:04:20;;;;;;;13.68;10.48;;;;;20.70;100321.00;;;;2086192;28;20204;-53
2022/11/29 03:05:20;;;;;;;11.40;9.65;;;;;20.70;100320.00;;;;2086357;28;20219;-52
2022/11/29 03:06:30;;;;;;;14.07;10.23;;;;;20.70;100326.00;;;;2086210;28;20303;-50
2022/11/29 03:07:42;;;;;;;11.57;9.57;;;;;20.70;100326.00;;;;2087217;28;20213;-52
2022/11/29 03:08:57;;;;;;;12.77;10.05;;;;;20.70;100322.00;;;;2086628;28;20209;-56
2022/11/29 03:10:18;;;;;;;14.10;10.68;;;;;20.70;100330.00;;;;2086247;28;20291;-52
2022/11/29 03:11:36;;;;;;;12.63;9.95;;;;;20.70;100323.00;;;;2085988;28;20208;-53
2022/11/29 03:12:42;;;;;;;12.50;10.05;;;;;20.70;100326.00;;;;2085194;28;20229;-51
2022/11/29 03:13:52;;;;;;;12.80;10.45;;;;;20.70;100335.00;;;;2077882;28;20210;-53
2022/11/29 03:14:56;;;;;;;12.30;9.55;;;;;20.70;100332.00;;;;2072751;28;20214;-53
2022/11/29 03:16:00;;;;;;;12.00;10.15;;;;;20.70;100335.00;;;;2086238;28;20205;-53
2022/11/29 03:17:29;;;;;;;13.82;9.75;;;;;20.70;100335.00;;;;2086223;28;20288;-53
2022/11/29 03:18:54;;;;;;;13.25;10.98;;;;;20.70;100341.00;;;;2086237;28;20341;-52
2022/11/29 03:20:01;;;;;;;12.27;9.98;;;;;20.70;100339.00;;;;2086441;28;20213;-51
2022/11/29 03:21:36;;;;;;;13.23;10.27;;;;;20.70;100338.00;;;;2086963;28;20716;-50
2022/11/29 03:23:05;;;;;;;11.00;9.27;;;;;20.70;100345.00;;;;2085199;28;20929;-52
2022/11/29 03:24:12;;;;;;;13.40;9.35;;;;;20.70;100336.00;;;;2073497;28;20221;-49
2022/11/29 03:25:23;;;;;;;12.40;9.50;;;;;20.70;100339.00;;;;2082191;28;20221;-51
2022/11/29 03:26:36;;;;;;;13.75;10.25;;;;;20.70;100344.00;;;;2079391;28;20216;-52
2022/11/29 03:27:42;;;;;;;10.98;9.35;;;;;20.70;100342.00;;;;2086424;28;20719;-53
2022/11/29 03:29:00;;;;;;;14.82;11.13;;;;;20.70;100336.00;;;;2086286;28;20212;-52
2022/11/29 03:30:02;;;;;;;11.40;8.50;;;;;20.70;100347.00;;;;2085682;28;20321;-50
2022/11/29 03:31:19;;;;;;;12.88;10.30;;;;;20.70;100350.00;;;;2086048;28;20207;-51
2022/11/29 03:32:48;;;;;;;13.65;9.82;;;;;20.70;100355.00;;;;2084868;28;20224;-53
2022/11/29 03:34:10;;;;;;;15.23;10.45;;;;;20.70;100358.00;;;;2086186;28;20213;-51
2022/11/29 03:35:33;;;;;;;12.73;9.10;;;;;20.70;100358.00;;;;2086919;28;20308;-50
2022/11/29 03:36:46;;;;;;;13.93;10.15;;;;;20.70;100348.00;;;;2079419;28;20240;-49
2022/11/29 03:38:12;;;;;;;13.40;9.38;;;;;20.70;100353.00;;;;2088312;28;20223;-50
2022/11/29 03:39:40;;;;;;;13.00;10.10;;;;;20.70;100364.00;;;;2073205;28;20240;-51
2022/11/29 03:40:45;;;;;;;12.93;10.40;;;;;20.60;100330.00;;;;2087904;28;20217;-51
2022/11/29 03:41:51;;;;;;;12.20;8.80;;;;;20.70;100359.00;;;;2088221;28;20219;-52
2022/11/29 03:42:55;;;;;;;10.95;8.52;;;;;20.70;100363.00;;;;2087487;28;20212;-53
2022/11/29 03:44:21;;;;;;;13.48;10.00;;;;;20.60;100365.00;;;;2078153;28;20741;-52
2022/11/29 03:45:29;;;;;;;11.18;9.23;;;;;20.60;100366.00;;;;2076573;28;20554;-53
2022/11/29 03:46:51;;;;;;;9.88;8.43;;;;;20.60;100359.00;;;;2087671;28;20266;-52
2022/11/29 03:48:23;;;;;;;15.25;10.70;;;;;20.60;100364.00;;;;2087257;28;20243;-52
2022/11/29 03:49:42;;;;;;;12.98;9.07;;;;;20.60;100370.00;;;;2082473;28;20253;-51
2022/11/29 03:50:53;;;;;;;11.07;9.00;;;;;20.60;100367.00;;;;2086712;28;20213;-52
2022/11/29 03:52:05;;;;;;;12.73;10.00;;;;;20.60;100366.00;;;;2077378;28;20341;-53
2022/11/29 03:53:38;;;;;;;11.60;9.50;;;;;20.60;100370.00;;;;2073792;28;20218;-50
2022/11/29 03:54:45;;;;;;;11.98;9.20;;;;;20.60;100364.00;;;;2083076;28;20254;-51
2022/11/29 03:55:53;;;;;;;11.98;9.40;;;;;20.60;100366.00;;;;2080304;28;20209;-51
2022/11/29 03:56:54;;;;;;;13.70;9.73;;;;;20.60;100365.00;;;;2079269;28;20216;-53
2022/11/29 03:58:06;;;;;;;12.23;9.47;;;;;20.60;100372.00;;;;2078508;28;20313;-52
2022/11/29 03:59:13;;;;;;;15.55;10.27;;;;;20.60;100368.00;;;;2084653;28;20234;-53
2022/11/29 04:00:13;;;;;;;14.38;10.07;;;;;20.60;100375.00;;;;2087408;28;20217;-52
2022/11/29 04:01:20;;;;;;;12.20;8.90;;;;;20.60;100371.00;;;;2088328;28;20212;-51
2022/11/29 04:02:29;;;;;;;13.18;9.50;;;;;20.60;100368.00;;;;2087586;28;20692;-52
2022/11/29 04:04:00;;;;;;;13.60;9.23;;;;;20.60;100366.00;;;;2087909;28;20225;-51
2022/11/29 04:05:31;;;;;;;13.50;9.18;;;;;20.60;100363.00;;;;2088092;28;20701;-51
2022/11/29 04:06:54;;;;;;;12.25;9.23;;;;;20.60;100371.00;;;;2087552;28;20302;-50
2022/11/29 04:08:25;;;;;;;13.73;8.63;;;;;20.60;100367.00;;;;2087224;28;20209;-52
2022/11/29 04:09:47;;;;;;;12.02;9.23;;;;;20.60;100379.00;;;;2081591;28;20837;-53
2022/11/29 04:11:36;;;;;;;12.02;9.15;;;;;20.60;100370.00;;;;2085079;28;20220;-53
2022/11/29 04:12:47;;;;;;;12.10;8.70;;;;;20.60;100373.00;;;;2068620;28;20236;-50
2022/11/29 04:14:25;;;;;;;11.82;8.75;;;;;20.50;100372.00;;;;2087570;28;20239;-52
2022/11/29 04:15:44;;;;;;;12.45;8.50;;;;;20.60;100374.00;;;;2086660;28;20244;-51
2022/11/29 04:17:13;;;;;;;12.75;9.30;;;;;20.60;100376.00;;;;2087432;28;20217;-49
2022/11/29 04:18:35;;;;;;;12.20;8.50;;;;;20.60;100381.00;;;;2077929;28;20241;-52
2022/11/29 04:19:44;;;;;;;12.40;9.40;;;;;20.60;100385.00;;;;2087409;28;20227;-52
2022/11/29 04:20:58;;;;;;;12.10;9.05;;;;;20.60;100377.00;;;;2087610;28;20561;-51
2022/11/29 04:22:16;;;;;;;12.07;9.00;;;;;20.60;100387.00;;;;2086085;28;20251;-53
2022/11/29 04:23:33;;;;;;;13.90;9.23;;;;;20.50;100382.00;;;;2087168;28;20276;-50
2022/11/29 04:25:03;;;;;;;11.45;9.25;;;;;20.60;100385.00;;;;2086848;28;20213;-51
2022/11/29 04:26:12;;;;;;;12.30;8.80;;;;;20.50;100392.00;;;;2073879;28;20233;-51
2022/11/29 04:27:18;;;;;;;9.30;7.72;;;;;20.50;100397.00;;;;2087925;28;20674;-53
2022/11/29 04:28:37;;;;;;;12.40;8.85;;;;;20.50;100393.00;;;;2087800;28;20223;-53
2022/11/29 04:29:52;;;;;;;11.10;8.52;;;;;20.50;100388.00;;;;2082625;28;20201;-52
2022/11/29 04:31:14;;;;;;;11.23;8.30;;;;;20.50;100397.00;;;;2086443;28;20286;-53
2022/11/29 04:32:36;;;;;;;14.48;9.93;;;;;20.50;100401.00;;;;2081986;28;20232;-51
2022/11/29 04:34:15;;;;;;;11.15;8.32;;;;;20.50;100393.00;;;;2079378;28;20232;-53
2022/11/29 04:35:54;;;;;;;13.50;9.13;;;;;20.50;100399.00;;;;2068343;28;20218;-51
2022/11/29 04:37:03;;;;;;;12.43;9.18;;;;;20.50;100400.00;;;;2068117;28;20244;-54
2022/11/29 04:38:34;;;;;;;11.80;8.35;;;;;20.50;100399.00;;;;2085175;28;20220;-53
2022/11/29 04:40:08;;;;;;;11.40;8.75;;;;;20.50;100400.00;;;;2079046;28;20226;-52
2022/11/29 04:41:09;;;;;;;10.57;7.63;;;;;20.50;100402.00;;;;2060652;28;20234;-52
2022/11/29 04:42:33;;;;;;;10.10;7.77;;;;;20.50;100399.00;;;;2080894;28;20213;-53
2022/11/29 04:43:44;;;;;;;10.88;7.93;;;;;20.50;100402.00;;;;2086890;28;20209;-52
2022/11/29 04:44:53;;;;;;;10.93;7.65;;;;;20.50;100401.00;;;;2087384;28;20213;-52
2022/11/29 04:46:10;;;;;;;13.93;8.70;;;;;20.50;100396.00;;;;2087677;28;20295;-53
2022/11/29 04:47:20;;;;;;;10.70;7.72;;;;;20.50;100407.00;;;;2087009;28;20208;-52
2022/11/29 04:48:31;;;;;;;11.40;7.82;;;;;20.50;100410.00;;;;2086347;28;20304;-49
2022/11/29 04:49:43;;;;;;;12.55;8.52;;;;;20.50;100405.00;;;;2085824;28;20299;-53
2022/11/29 04:50:46;;;;;;;12.55;8.05;;;;;20.50;100409.00;;;;2079128;28;20221;-53
2022/11/29 04:52:14;;;;;;;13.57;8.50;;;;;20.50;100406.00;;;;2078841;28;20988;-52
2022/11/29 04:53:32;;;;;;;12.15;8.07;;;;;20.50;100407.00;;;;2084797;28;20743;-52
2022/11/29 04:54:46;;;;;;;11.52;7.72;;;;;20.50;100408.00;;;;2087070;28;20587;-52
2022/11/29 04:55:52;;;;;;;12.25;7.82;;;;;20.50;100412.00;;;;2082522;28;20898;-50
2022/11/29 04:57:16;;;;;;;11.60;8.73;;;;;20.50;100412.00;;;;2071633;28;20218;-53
2022/11/29 04:58:30;;;;;;;13.10;8.10;;;;;20.50;100418.00;;;;2072185;28;20224;-49
2022/11/29 04:59:37;;;;;;;14.30;8.85;;;;;20.50;100413.00;;;;2074817;28;20256;-49
2022/11/29 05:01:06;;;;;;;10.15;7.60;;;;;20.50;100416.00;;;;2079487;28;20217;-53
2022/11/29 05:02:47;;;;;;;12.60;8.15;;;;;20.50;100413.00;;;;2079580;28;20209;-52
2022/11/29 05:04:05;;;;;;;10.98;7.38;;;;;20.50;100420.00;;;;2085913;28;20574;-53
2022/11/29 05:05:43;;;;;;;11.70;7.55;;;;;20.40;100422.00;;;;2086188;28;20223;-52
2022/11/29 05:06:46;;;;;;;10.85;8.10;;;;;20.50;100424.00;;;;2087713;28;20556;-53
2022/11/29 05:07:59;;;;;;;11.90;7.38;;;;;20.50;100419.00;;;;2087375;28;20209;-53
2022/11/29 05:09:09;;;;;;;11.90;8.45;;;;;20.50;100425.00;;;;2086715;28;20220;-53
2022/11/29 05:10:41;;;;;;;12.00;8.70;;;;;20.50;100420.00;;;;2086561;28;20209;-50
2022/11/29 05:11:53;;;;;;;12.00;7.63;;;;;20.40;100417.00;;;;2087080;28;20292;-48
2022/11/29 05:13:05;;;;;;;10.38;8.52;;;;;20.50;100423.00;;;;2087407;28;20224;-54
2022/11/29 05:14:29;;;;;;;10.82;7.70;;;;;20.40;100421.00;;;;2085900;28;20208;-53
2022/11/29 05:15:51;;;;;;;10.70;8.45;;;;;20.40;100420.00;;;;2087149;28;20213;-52
2022/11/29 05:17:07;;;;;;;12.98;8.20;;;;;20.40;100425.00;;;;2087577;28;20564;-52
2022/11/29 05:18:25;;;;;;;13.75;8.95;;;;;20.50;100425.00;;;;2087570;28;20699;-52
2022/11/29 05:19:55;;;;;;;11.55;7.68;;;;;20.40;100426.00;;;;2086910;28;20217;-49
2022/11/29 05:21:17;;;;;;;10.73;8.00;;;;;20.40;100426.00;;;;2053201;28;20229;-52
2022/11/29 05:22:47;;;;;;;12.13;8.23;;;;;20.50;100417.00;;;;2085432;28;20713;-54
2022/11/29 05:24:16;;;;;;;9.85;7.28;;;;;20.40;100429.00;;;;2081777;28;20902;-50
2022/11/29 05:25:34;;;;;;;10.73;7.18;;;;;20.40;100429.00;;;;2077746;28;20228;-52
2022/11/29 05:26:43;;;;;;;10.90;7.70;;;;;20.40;100424.00;;;;2080490;28;20232;-50
2022/11/29 05:27:57;;;;;;;10.57;7.32;;;;;20.40;100429.00;;;;2078995;28;20248;-53
2022/11/29 05:29:05;;;;;;;11.52;7.63;;;;;20.40;100436.00;;;;2079698;28;20216;-53
2022/11/29 05:30:19;;;;;;;9.73;6.95;;;;;20.40;100436.00;;;;2077417;28;20677;-50
2022/11/29 05:31:29;;;;;;;11.38;7.63;;;;;20.40;100437.00;;;;2073554;28;20220;-53
2022/11/29 05:32:33;;;;;;;12.43;7.95;;;;;20.40;100436.00;;;;2077118;28;20871;-53
2022/11/29 05:33:56;;;;;;;12.00;7.53;;;;;20.40;100449.00;;;;2078596;28;20348;-57
2022/11/29 05:35:24;;;;;;;10.75;6.95;;;;;20.40;100439.00;;;;2086126;28;20555;-49
2022/11/29 05:37:01;;;;;;;11.50;7.72;;;;;20.40;100447.00;;;;2086494;28;20228;-51
2022/11/29 05:38:06;;;;;;;11.77;7.35;;;;;20.40;100446.00;;;;2046231;28;20231;-53
2022/11/29 05:39:15;;;;;;;10.30;7.70;;;;;20.40;100438.00;;;;2079287;28;20221;-52
2022/11/29 05:40:22;;;;;;;9.85;8.20;;;;;20.40;100440.00;;;;2086350;28;20232;-52
2022/11/29 05:41:33;;;;;;;11.73;7.57;;;;;20.40;100446.00;;;;2086474;28;20217;-50